Terminal Aerodrome Forecast
Issued by NWS

Home | Current Version | Previous Version | Graphics & Text | Print | Product List | Glossary On
Versions: 1 2 3 4 5 6 7 8 9 10 11 12 13 14 15
000
FTUS43 KICT 211000 AAB
TAFCNU
TAF AMD
KCNU 211026Z 2110/2206 00000KT P6SM SKC
     FM211100 00000KT 3SM BR SKC
      TEMPO 2111/2114 1SM BR SCT003
     FM211500 17007KT P6SM SKC=

USA.gov is the U.S. government's official web portal to all federal, state and local government web resources and services.